ADDS METAR Data

Data at: 0745 UTC 24 Oct 2017

METAR for:KLCI (Laconia Muni, NH, US)
Text:KLCI 240720Z AUTO 17005KT 10SM BKN012 OVC021 17/16 A3008 RMK AO2
Temperature: 17.0°C ( 63°F)
Dewpoint: 16.0°C ( 61°F) [RH = 94%]
Pressure (altimeter):30.08 inches Hg (1018.7 mb)
Winds:from the S (170 degrees) at 6 MPH (5 knots; 2.6 m/s)
Visibility:10 or more sm (16+ km)
Ceiling:1200 feet AGL
Clouds: broken clouds at 1200 feet AGL, overcast cloud deck at 2100 feet AGL
QC Flag:automated observation with no human augmentation